createdAt,value
2019-02-06T07:13:04.860Z,17.97
2019-02-06T07:15:35.089Z,19.53
2019-02-06T07:18:04.482Z,17.53
2019-02-06T07:20:33.810Z,28.43
2019-02-06T07:23:03.380Z,17.53
2019-02-06T07:25:32.708Z,21.43
2019-02-06T07:28:02.000Z,28.80
2019-02-06T07:30:35.941Z,30.07
2019-02-06T07:33:05.323Z,24.30
2019-02-06T07:35:34.644Z,19.47
2019-02-06T07:38:04.009Z,44.10
2019-02-06T07:40:33.335Z,35.67
2019-02-06T07:43:02.647Z,45.27
2019-02-06T07:45:32.033Z,20.77
2019-02-06T07:48:01.382Z,27.87
2019-02-06T07:50:35.073Z,23.07
2019-02-06T07:53:04.395Z,28.33
2019-02-06T07:55:33.716Z,22.13
2019-02-06T07:58:03.096Z,22.97
2019-02-06T08:00:32.462Z,44.23
2019-02-06T08:03:01.793Z,22.37
2019-02-06T08:05:31.193Z,45.80
2019-02-06T08:08:00.542Z,21.93
2019-02-06T08:10:35.357Z,21.13
2019-02-06T08:13:05.441Z,22.47
2019-02-06T08:15:34.752Z,34.20
2019-02-06T08:18:04.230Z,29.20
2019-02-06T08:20:33.906Z,28.73
2019-02-06T08:23:03.223Z,20.37
2019-02-06T08:25:32.511Z,24.63
2019-02-06T08:28:01.828Z,28.60
2019-02-06T08:30:37.912Z,37.67
2019-02-06T08:33:07.252Z,37.03
2019-02-06T08:35:36.635Z,27.27
2019-02-06T08:38:06.008Z,33.00
2019-02-06T08:40:35.334Z,34.03
2019-02-06T08:43:04.674Z,32.97
2019-02-06T08:45:34.058Z,40.23
2019-02-06T08:48:03.343Z,39.87
2019-02-06T08:50:32.836Z,37.63
2019-02-06T08:53:02.126Z,39.23
2019-02-06T08:55:34.594Z,39.93
2019-02-06T08:58:03.891Z,37.83
2019-02-06T09:00:39.039Z,36.80
2019-02-06T09:03:10.036Z,32.30
2019-02-06T09:05:39.435Z,32.10
2019-02-06T09:08:08.808Z,50.00
2019-02-06T09:10:38.107Z,33.73
2019-02-06T09:13:07.483Z,38.97
2019-02-06T09:15:36.859Z,34.20
2019-02-06T09:18:06.462Z,31.77
2019-02-06T09:20:35.754Z,39.20
2019-02-06T09:23:05.075Z,33.90
2019-02-06T09:25:34.378Z,31.57
2019-02-06T09:28:03.762Z,34.70
2019-02-06T09:30:35.498Z,26.10
2019-02-06T09:33:05.595Z,24.73
2019-02-06T09:35:34.942Z,20.03
2019-02-06T09:38:04.232Z,29.00
2019-02-06T09:40:33.521Z,24.33
2019-02-06T09:43:02.829Z,35.23
2019-02-06T09:45:32.143Z,31.70
2019-02-06T09:48:01.479Z,37.03
2019-02-06T09:50:33.734Z,30.93
2019-02-06T09:53:03.046Z,20.23
2019-02-06T09:55:32.433Z,24.20
2019-02-06T09:58:01.785Z,30.33
2019-02-06T10:00:33.919Z,23.63
2019-02-06T10:03:03.478Z,39.43
2019-02-06T10:05:32.761Z,23.50
2019-02-06T10:08:02.160Z,18.43
2019-02-06T10:10:31.468Z,14.00
2019-02-06T10:13:00.850Z,16.50
2019-02-06T10:15:33.274Z,19.73
2019-02-06T10:18:03.079Z,19.10
2019-02-06T10:20:39.196Z,20.90
2019-02-06T10:23:08.831Z,24.23
2019-02-06T10:25:38.316Z,20.83
2019-02-06T10:28:07.629Z,18.47
2019-02-06T10:30:46.508Z,28.37
2019-02-06T10:33:18.711Z,20.83
2019-02-06T10:35:46.918Z,15.20
2019-02-06T10:38:16.198Z,15.67
2019-02-06T10:40:45.519Z,24.13
2019-02-06T10:43:14.832Z,12.43
2019-02-06T10:45:44.150Z,16.77
2019-02-06T10:48:13.481Z,33.20
2019-02-06T10:50:46.838Z,22.03
2019-02-06T10:53:16.124Z,16.40
2019-02-06T10:55:45.458Z,13.83
2019-02-06T10:58:14.778Z,13.97
2019-02-06T11:00:53.776Z,23.37
2019-02-06T11:03:23.079Z,19.93
2019-02-06T11:05:52.366Z,19.20
2019-02-06T11:08:21.686Z,15.57
2019-02-06T11:10:51.038Z,13.30
2019-02-06T11:13:20.661Z,15.37
2019-02-06T11:15:50.031Z,20.13
2019-02-06T11:18:19.332Z,17.97
2019-02-06T11:20:49.022Z,13.33
2019-02-06T11:23:18.316Z,19.73
2019-02-06T11:25:47.598Z,14.20
2019-02-06T11:28:17.120Z,14.77
2019-02-06T11:30:46.421Z,17.77
2019-02-06T11:33:15.775Z,15.47
2019-02-06T11:35:45.085Z,17.23
2019-02-06T11:38:14.441Z,22.70
2019-02-06T11:40:43.726Z,14.27
2019-02-06T11:43:13.282Z,15.57
2019-02-06T11:45:42.639Z,38.53
2019-02-06T11:48:12.094Z,11.53
2019-02-06T11:50:42.465Z,14.93
2019-02-06T11:53:15.190Z,14.17
2019-02-06T11:55:44.542Z,11.57
2019-02-06T11:58:13.832Z,12.03
2019-02-06T12:00:42.919Z,16.13
2019-02-06T12:03:12.273Z,13.60
2019-02-06T12:05:41.588Z,30.53
2019-02-06T12:08:12.640Z,39.57
2019-02-06T12:10:42.246Z,11.57
2019-02-06T12:13:11.702Z,13.90
2019-02-06T12:15:40.990Z,12.43
2019-02-06T12:18:10.705Z,14.17
2019-02-06T12:20:40.050Z,16.03
2019-02-06T12:23:09.353Z,14.60
2019-02-06T12:25:38.669Z,16.93
2019-02-06T12:28:08.231Z,10.30
2019-02-06T12:30:40.837Z,11.33
2019-02-06T12:33:10.191Z,15.13
2019-02-06T12:35:39.502Z,14.33
2019-02-06T12:38:08.790Z,13.17
2019-02-06T12:40:38.108Z,11.97
2019-02-06T12:43:10.533Z,12.70
2019-02-06T12:45:39.243Z,17.07
2019-02-06T12:48:08.909Z,11.97
2019-02-06T12:50:38.222Z,24.47
2019-02-06T12:53:07.551Z,16.90
2019-02-06T12:55:41.717Z,14.63
2019-02-06T12:58:11.171Z,14.00
2019-02-06T13:00:43.809Z,15.20
2019-02-06T13:03:13.093Z,18.30
2019-02-06T13:05:42.373Z,18.07
2019-02-06T13:08:11.678Z,12.57
2019-02-06T13:10:41.080Z,14.87
2019-02-06T13:13:10.471Z,15.00
2019-02-06T13:15:39.747Z,14.80
2019-02-06T13:18:09.066Z,13.10
2019-02-06T13:20:38.357Z,16.70
2019-02-06T13:23:07.671Z,16.37
2019-02-06T13:25:36.953Z,14.57
2019-02-06T13:28:06.443Z,15.17
2019-02-06T13:30:39.108Z,15.33
2019-02-06T13:33:11.577Z,13.90
2019-02-06T13:35:39.997Z,17.53
2019-02-06T13:38:09.294Z,18.87
2019-02-06T13:40:45.848Z,12.90
2019-02-06T13:43:09.689Z,17.13
2019-02-06T13:45:48.216Z,13.07
2019-02-06T13:48:17.573Z,13.27
2019-02-06T13:50:46.894Z,18.43
2019-02-06T13:53:16.234Z,13.87
2019-02-06T13:55:45.635Z,20.77
2019-02-06T13:58:20.298Z,16.50
2019-02-06T14:00:46.104Z,24.13
2019-02-06T14:03:15.418Z,14.57
2019-02-06T14:05:46.936Z,14.53
2019-02-06T14:08:16.492Z,17.80
2019-02-06T14:10:59.890Z,18.30
2019-02-06T14:13:17.269Z,17.80
2019-02-06T14:15:48.695Z,20.53
2019-02-06T14:19:05.598Z,16.63
2019-02-06T14:21:34.903Z,20.10
2019-02-06T14:24:26.616Z,16.37
2019-02-06T14:27:00.789Z,17.87
2019-02-06T14:30:09.390Z,14.90
2019-02-06T14:33:00.239Z,17.57
2019-02-06T14:35:55.314Z,19.13
2019-02-06T14:38:44.068Z,21.10
2019-02-06T14:41:32.999Z,20.07
2019-02-06T14:44:26.619Z,20.23
2019-02-06T14:47:12.227Z,15.60
2019-02-06T14:50:04.155Z,17.20
2019-02-06T14:52:50.165Z,20.60
2019-02-06T14:55:52.834Z,18.67
2019-02-06T14:58:38.568Z,18.70
2019-02-06T15:01:32.005Z,18.97
2019-02-06T15:04:29.490Z,23.73
2019-02-06T15:07:14.941Z,23.67
2019-02-06T15:10:18.976Z,19.13
2019-02-06T15:13:07.975Z,19.23
2019-02-06T15:15:56.146Z,19.30
2019-02-06T15:18:57.316Z,23.43
2019-02-06T15:21:55.032Z,21.37
2019-02-06T15:24:34.593Z,26.13
2019-02-06T15:27:26.505Z,27.20
2019-02-06T15:30:03.760Z,19.67
2019-02-06T15:32:40.592Z,17.63
2019-02-06T15:35:17.502Z,25.57
2019-02-06T15:38:00.224Z,20.50
2019-02-06T15:40:56.540Z,18.30
2019-02-06T15:43:57.156Z,21.60
2019-02-06T15:46:33.880Z,18.40
2019-02-06T15:49:25.867Z,27.43
2019-02-06T15:52:25.198Z,29.70
2019-02-06T15:55:22.714Z,21.80
2019-02-06T15:58:13.091Z,34.77
2019-02-06T16:01:02.091Z,26.17
2019-02-06T16:03:37.926Z,38.53
2019-02-06T16:06:27.418Z,18.10
2019-02-06T16:09:20.764Z,43.03
2019-02-06T16:12:18.788Z,28.40
2019-02-06T16:14:58.566Z,34.73
2019-02-06T16:17:38.256Z,22.10
2019-02-06T16:20:37.734Z,20.87
2019-02-06T16:23:38.490Z,29.63
2019-02-06T16:26:48.626Z,25.80
2019-02-06T16:30:00.642Z,27.10
2019-02-06T16:33:04.427Z,40.07
2019-02-06T16:36:10.140Z,25.47
2019-02-06T16:39:02.158Z,26.93
2019-02-06T16:42:02.448Z,41.13
2019-02-06T16:44:42.478Z,37.20
2019-02-06T16:47:28.178Z,34.67
2019-02-06T16:50:08.095Z,41.40
2019-02-06T16:53:08.660Z,35.07
2019-02-06T16:56:09.654Z,31.77
2019-02-06T16:59:23.527Z,25.47
2019-02-06T17:02:19.918Z,29.30
2019-02-06T17:05:14.610Z,33.80
2019-02-06T17:08:07.847Z,36.27
2019-02-06T17:11:03.977Z,38.60
2019-02-06T17:14:08.772Z,28.63
2019-02-06T17:17:03.504Z,26.07
2019-02-06T17:19:46.529Z,58.07
2019-02-06T17:22:26.458Z,62.37
2019-02-06T17:25:24.403Z,59.97
2019-02-06T17:28:13.487Z,70.87
2019-02-06T17:31:19.451Z,60.83
2019-02-06T17:34:11.642Z,59.43
2019-02-06T17:36:51.516Z,52.50
2019-02-06T17:39:45.323Z,39.07
2019-02-06T17:42:52.695Z,47.40
2019-02-06T17:45:48.157Z,42.80
2019-02-06T17:48:30.937Z,44.70
2019-02-06T17:51:33.355Z,67.80
2019-02-06T17:54:13.369Z,48.13
2019-02-06T17:56:42.681Z,45.20
2019-02-06T17:59:11.971Z,42.17
2019-02-06T18:01:41.286Z,53.23
2019-02-06T18:04:10.650Z,48.30
2019-02-06T18:06:40.010Z,41.80
2019-02-06T18:09:12.950Z,39.83
2019-02-06T18:11:42.339Z,52.07
2019-02-06T18:14:11.658Z,68.47
2019-02-06T18:16:41.049Z,45.20
2019-02-06T18:19:10.337Z,51.70
2019-02-06T18:21:39.659Z,57.50
2019-02-06T18:24:09.435Z,42.50
2019-02-06T18:26:42.052Z,44.27
2019-02-06T18:29:11.375Z,46.70
2019-02-06T18:31:40.734Z,50.43
2019-02-06T18:34:10.263Z,36.40
2019-02-06T18:36:39.617Z,42.43
2019-02-06T18:39:10.834Z,45.67
2019-02-06T18:41:40.478Z,52.63
2019-02-06T18:44:09.930Z,51.47
2019-02-06T18:46:39.424Z,44.23
2019-02-06T18:49:08.818Z,44.40
2019-02-06T18:51:38.112Z,45.53
2019-02-06T18:54:07.635Z,40.97
2019-02-06T18:56:36.925Z,37.27
2019-02-06T18:59:06.831Z,43.80
2019-02-06T19:01:36.127Z,42.67
2019-02-06T19:04:06.196Z,35.10
2019-02-06T19:06:35.600Z,32.73
2019-02-06T19:09:07.990Z,40.53
2019-02-06T19:11:37.285Z,42.20
2019-02-06T19:14:06.849Z,35.13
2019-02-06T19:16:36.446Z,36.03
2019-02-06T19:19:05.817Z,37.47
2019-02-06T19:21:35.185Z,41.73
2019-02-06T19:24:04.684Z,37.67
2019-02-06T19:26:33.982Z,31.30
2019-02-06T19:29:03.384Z,32.77
2019-02-06T19:31:32.823Z,34.00
2019-02-06T19:34:02.665Z,40.00
2019-02-06T19:36:31.994Z,34.30
2019-02-06T19:39:01.392Z,35.50
2019-02-06T19:41:30.692Z,38.17
2019-02-06T19:44:00.847Z,32.07
2019-02-06T19:46:30.186Z,36.50
2019-02-06T19:48:59.548Z,37.03
2019-02-06T19:51:29.146Z,34.17
2019-02-06T19:53:58.446Z,42.30
2019-02-06T19:56:27.780Z,39.70
2019-02-06T19:58:57.077Z,38.93
2019-02-06T20:01:26.404Z,64.83
2019-02-06T20:03:55.700Z,66.93
2019-02-06T20:06:30.817Z,60.90
2019-02-06T20:09:00.252Z,57.70
2019-02-06T20:11:29.652Z,64.97
2019-02-06T20:13:58.968Z,67.17
2019-02-06T20:16:28.260Z,60.00
2019-02-06T20:18:57.588Z,48.07
2019-02-06T20:21:26.957Z,46.90
2019-02-06T20:23:56.282Z,57.73
2019-02-06T20:26:25.577Z,38.20
2019-02-06T20:28:54.978Z,32.53
2019-02-06T20:31:24.350Z,37.93
2019-02-06T20:33:53.678Z,40.50
2019-02-06T20:36:23.047Z,42.30
2019-02-06T20:38:52.371Z,39.53
2019-02-06T20:41:22.148Z,35.27
2019-02-06T20:43:51.473Z,37.27
2019-02-06T20:46:20.800Z,43.47
2019-02-06T20:48:50.098Z,34.00
2019-02-06T20:51:19.600Z,42.07
2019-02-06T20:53:48.959Z,37.70
2019-02-06T20:56:18.285Z,38.93
2019-02-06T20:58:48.063Z,40.30
2019-02-06T21:01:17.382Z,43.07
2019-02-06T21:03:46.705Z,36.20
2019-02-06T21:06:16.075Z,40.03
2019-02-06T21:08:45.401Z,36.10
2019-02-06T21:11:14.868Z,43.67
2019-02-06T21:13:44.175Z,40.50
2019-02-06T21:16:13.495Z,36.97
2019-02-06T21:18:42.860Z,35.67
2019-02-06T21:21:12.182Z,37.57
2019-02-06T21:23:41.485Z,40.77
2019-02-06T21:26:10.809Z,37.70
2019-02-06T21:28:40.246Z,31.93
2019-02-06T21:31:09.676Z,31.93
2019-02-06T21:33:38.977Z,41.70
2019-02-06T21:36:08.311Z,42.83
2019-02-06T21:38:37.610Z,37.83
2019-02-06T21:41:06.980Z,46.70
2019-02-06T21:43:43.880Z,44.47
2019-02-06T21:46:07.473Z,40.30
2019-02-06T21:48:36.940Z,48.73
2019-02-06T21:51:06.306Z,45.47
2019-02-06T21:53:35.635Z,40.03
2019-02-06T21:56:05.000Z,33.00
2019-02-06T21:58:34.457Z,33.07
2019-02-06T22:01:03.829Z,35.83
2019-02-06T22:03:33.225Z,38.73
2019-02-06T22:06:02.526Z,30.27
2019-02-06T22:08:31.824Z,35.83
2019-02-06T22:11:01.151Z,38.07
2019-02-06T22:13:30.453Z,48.23
2019-02-06T22:15:59.846Z,44.40
2019-02-06T22:18:29.174Z,43.97
2019-02-06T22:20:58.844Z,36.97
2019-02-06T22:23:28.172Z,45.43
2019-02-06T22:25:57.499Z,48.90
2019-02-06T22:28:26.868Z,39.63
2019-02-06T22:30:56.260Z,41.87
2019-02-06T22:33:25.652Z,45.47
2019-02-06T22:35:54.980Z,42.13
2019-02-06T22:38:24.374Z,33.00
2019-02-06T22:40:53.665Z,42.10
2019-02-06T22:43:23.131Z,40.83
2019-02-06T22:45:52.457Z,38.10
2019-02-06T22:48:21.757Z,36.33
2019-02-06T22:50:51.156Z,40.97
2019-02-06T22:53:20.536Z,33.47
2019-02-06T22:55:49.908Z,49.50
2019-02-06T22:58:19.229Z,38.50
2019-02-06T23:00:55.074Z,46.87
2019-02-06T23:03:29.256Z,42.87
2019-02-06T23:05:58.633Z,31.63
2019-02-06T23:08:27.962Z,36.17
2019-02-06T23:10:57.668Z,37.23
2019-02-06T23:13:26.967Z,37.47
2019-02-06T23:15:56.294Z,36.60
2019-02-06T23:18:25.690Z,35.70
2019-02-06T23:20:55.057Z,42.87
2019-02-06T23:23:24.500Z,53.57
2019-02-06T23:25:54.173Z,33.17
2019-02-06T23:28:23.498Z,23.57
2019-02-06T23:30:52.869Z,32.63
2019-02-06T23:33:22.203Z,30.77
2019-02-06T23:35:51.505Z,37.57
2019-02-06T23:38:20.831Z,34.87
2019-02-06T23:40:50.505Z,37.13
2019-02-06T23:43:19.877Z,28.33
2019-02-06T23:45:49.204Z,32.80
2019-02-06T23:48:18.568Z,36.97
2019-02-06T23:50:47.865Z,39.50
2019-02-06T23:53:17.258Z,35.67
2019-02-06T23:55:46.909Z,36.60
2019-02-06T23:58:16.233Z,31.87
